createdAt,value
2018-08-25T00:00:20.129Z,7.8
2018-08-25T00:01:21.763Z,7.8
2018-08-25T00:02:23.211Z,7.8
2018-08-25T00:03:24.643Z,7.8
2018-08-25T00:04:26.310Z,7.8
2018-08-25T00:05:27.612Z,7.8
2018-08-25T00:06:28.906Z,7.8
2018-08-25T00:07:30.524Z,7.8
2018-08-25T00:08:31.958Z,7.8
2018-08-25T00:09:33.405Z,7.8
2018-08-25T00:10:34.860Z,7.8
2018-08-25T00:11:36.313Z,7.8
2018-08-25T00:12:37.940Z,7.8
2018-08-25T00:13:39.546Z,7.8
2018-08-25T00:14:41.173Z,7.8
2018-08-25T00:15:42.463Z,7.8
2018-08-25T00:16:43.894Z,7.8
2018-08-25T00:17:45.504Z,7.8
2018-08-25T00:18:46.945Z,7.8
2018-08-25T00:19:48.398Z,7.8
2018-08-25T00:20:49.837Z,7.8
2018-08-25T00:21:51.277Z,7.8
2018-08-25T00:22:52.896Z,7.8
2018-08-25T00:23:54.152Z,7.8
2018-08-25T00:24:55.766Z,7.8
2018-08-25T00:25:57.366Z,7.8
2018-08-25T00:26:58.814Z,7.8
2018-08-25T00:28:00.433Z,7.8
2018-08-25T00:29:02.038Z,7.8
2018-08-25T00:30:03.499Z,7.8
2018-08-25T00:31:05.138Z,7.8
2018-08-25T00:32:06.785Z,7.8
2018-08-25T00:33:08.245Z,7.8
2018-08-25T00:34:09.521Z,7.8
2018-08-25T00:35:11.116Z,7.8
2018-08-25T00:36:12.552Z,7.8
2018-08-25T00:37:13.985Z,7.8
2018-08-25T00:38:15.590Z,7.8
2018-08-25T00:39:17.036Z,7.8
2018-08-25T00:40:18.634Z,7.8
2018-08-25T00:41:20.267Z,7.8
2018-08-25T00:42:21.866Z,7.8
2018-08-25T00:43:23.174Z,7.8
2018-08-25T00:44:24.614Z,7.8
2018-08-25T00:45:26.021Z,7.8
2018-08-25T00:46:27.320Z,7.8
2018-08-25T00:47:28.938Z,7.8
2018-08-25T00:48:30.371Z,7.8
2018-08-25T00:49:31.961Z,7.8
2018-08-25T00:50:33.403Z,7.8
2018-08-25T00:51:34.851Z,7.8
2018-08-25T00:52:36.297Z,7.8
2018-08-25T00:53:37.915Z,7.8
2018-08-25T00:54:39.518Z,7.8
2018-08-25T00:55:41.133Z,7.8
2018-08-25T00:56:42.426Z,7.8
2018-08-25T00:57:43.861Z,7.8
2018-08-25T00:58:45.501Z,7.8
2018-08-25T00:59:47.157Z,7.8
2018-08-25T01:00:48.613Z,7.8
2018-08-25T01:01:50.052Z,7.8
2018-08-25T01:02:51.494Z,7.8
2018-08-25T01:03:52.941Z,7.8
2018-08-25T01:04:54.557Z,7.8
2018-08-25T01:05:55.655Z,7.8
2018-08-25T01:06:57.125Z,7.8
2018-08-25T01:07:58.723Z,7.8
2018-08-25T01:09:00.309Z,7.8
2018-08-25T01:10:01.757Z,7.8
2018-08-25T01:11:03.370Z,7.8
2018-08-25T01:12:04.959Z,7.8
2018-08-25T01:13:06.577Z,7.8
2018-08-25T01:14:08.186Z,7.8
2018-08-25T01:15:09.661Z,7.8
2018-08-25T01:16:11.269Z,7.8
2018-08-25T01:17:12.908Z,7.8
2018-08-25T01:18:14.347Z,7.7
2018-08-25T01:19:15.811Z,7.7
2018-08-25T01:20:17.425Z,7.7
2018-08-25T01:21:18.875Z,7.7
2018-08-25T01:22:20.506Z,7.6
2018-08-25T01:23:21.949Z,7.6
2018-08-25T01:24:23.577Z,7.5
2018-08-25T01:25:25.019Z,7.4
2018-08-25T01:26:26.461Z,7.3
2018-08-25T01:27:27.923Z,7.2
2018-08-25T01:28:29.395Z,7.2
2018-08-25T01:29:30.994Z,7.2
2018-08-25T01:30:32.273Z,7.2
2018-08-25T01:31:33.907Z,7.2
2018-08-25T01:32:35.382Z,7.2
2018-08-25T01:33:36.989Z,7.2
2018-08-25T01:34:38.433Z,7.2
2018-08-25T01:35:40.043Z,7.2
2018-08-25T01:36:41.646Z,7.2
2018-08-25T01:37:43.261Z,7.2
2018-08-25T01:38:44.866Z,7.2
2018-08-25T01:39:46.474Z,7.2
2018-08-25T01:40:47.914Z,7.2
2018-08-25T01:41:49.519Z,7.2
2018-08-25T01:42:51.144Z,7.2
2018-08-25T01:43:52.587Z,7.2
2018-08-25T01:44:54.035Z,7.2
2018-08-25T01:45:55.653Z,7.2
2018-08-25T01:46:57.258Z,7.2
2018-08-25T01:47:58.559Z,7.2
2018-08-25T01:49:00.163Z,7.2
2018-08-25T01:50:01.772Z,7.2
2018-08-25T01:51:03.394Z,7.2
2018-08-25T01:52:04.665Z,7.2
2018-08-25T01:53:06.281Z,7.2
2018-08-25T01:54:07.915Z,7.2
2018-08-25T01:55:09.351Z,7.2
2018-08-25T01:56:10.959Z,7.2
2018-08-25T01:57:12.574Z,7.2
2018-08-25T01:58:14.022Z,7.2
2018-08-25T01:59:15.650Z,7.2
2018-08-25T02:00:17.074Z,7.2
2018-08-25T02:01:18.706Z,7.2
2018-08-25T02:02:20.369Z,7.2
2018-08-25T02:03:21.993Z,7.2
2018-08-25T02:04:23.599Z,7.2
2018-08-25T02:05:25.024Z,7.2
2018-08-25T02:06:26.475Z,7.2
2018-08-25T02:07:27.912Z,7.2
2018-08-25T02:08:29.329Z,7.3
2018-08-25T02:09:30.945Z,7.3
2018-08-25T02:10:32.376Z,7.3
2018-08-25T02:11:33.639Z,7.3
2018-08-25T02:12:35.251Z,7.3
2018-08-25T02:13:36.859Z,7.3
2018-08-25T02:14:38.526Z,7.3
2018-08-25T02:15:39.973Z,7.3
2018-08-25T02:16:41.425Z,7.4
2018-08-25T02:17:43.049Z,7.4
2018-08-25T02:18:44.509Z,7.4
2018-08-25T02:19:46.100Z,7.5
2018-08-25T02:20:47.536Z,7.5
2018-08-25T02:21:49.017Z,7.5
2018-08-25T02:22:50.648Z,7.6
2018-08-25T02:23:52.267Z,7.6
2018-08-25T02:24:53.871Z,7.7
2018-08-25T02:25:55.331Z,7.7
2018-08-25T02:26:56.924Z,7.8
2018-08-25T02:27:58.375Z,7.8
2018-08-25T02:28:59.985Z,7.8
2018-08-25T02:30:01.628Z,7.8
2018-08-25T02:31:03.234Z,7.8
2018-08-25T02:32:04.845Z,7.8
2018-08-25T02:33:06.464Z,7.8
2018-08-25T02:34:08.092Z,7.8
2018-08-25T02:35:09.713Z,7.8
2018-08-25T02:36:11.168Z,7.8
2018-08-25T02:37:12.624Z,7.9
2018-08-25T02:38:14.219Z,7.9
2018-08-25T02:39:15.507Z,7.9
2018-08-25T02:40:17.155Z,7.9
2018-08-25T02:41:18.809Z,7.9
2018-08-25T02:42:20.428Z,7.9
2018-08-25T02:43:21.732Z,7.8
2018-08-25T02:44:23.176Z,7.9
2018-08-25T02:45:24.626Z,7.9
2018-08-25T02:46:26.231Z,7.8
2018-08-25T02:47:27.697Z,7.9
2018-08-25T02:48:29.358Z,7.9
2018-08-25T02:49:30.797Z,7.9
2018-08-25T02:50:32.235Z,7.9
2018-08-25T02:51:33.828Z,7.9
2018-08-25T02:52:35.446Z,7.9
2018-08-25T02:53:37.045Z,7.9
2018-08-25T02:54:38.656Z,7.9
2018-08-25T02:55:40.267Z,7.9
2018-08-25T02:56:41.904Z,7.9
2018-08-25T02:57:43.530Z,7.9
2018-08-25T02:58:45.127Z,7.8
2018-08-25T02:59:46.756Z,7.8
2018-08-25T03:00:48.208Z,7.8
2018-08-25T03:01:49.644Z,7.8
2018-08-25T03:02:51.094Z,7.8
2018-08-25T03:03:52.541Z,7.8
2018-08-25T03:04:54.158Z,7.8
2018-08-25T03:05:55.572Z,7.8
2018-08-25T03:06:57.228Z,7.8
2018-08-25T03:07:58.840Z,7.8
2018-08-25T03:09:00.450Z,7.8
2018-08-25T03:10:01.919Z,7.8
2018-08-25T03:11:03.356Z,7.8
2018-08-25T03:12:04.814Z,7.8
2018-08-25T03:13:06.247Z,7.8
2018-08-25T03:14:07.718Z,7.8
2018-08-25T03:15:09.327Z,7.8
2018-08-25T03:16:10.955Z,7.8
2018-08-25T03:17:12.585Z,7.8
2018-08-25T03:18:14.207Z,7.8
2018-08-25T03:19:15.804Z,7.8
2018-08-25T03:20:17.404Z,7.8
2018-08-25T03:21:18.856Z,7.9
2018-08-25T03:22:20.482Z,7.9
2018-08-25T03:23:22.110Z,7.9
2018-08-25T03:24:23.730Z,7.9
2018-08-25T03:25:25.339Z,7.9
2018-08-25T03:26:26.945Z,7.9
2018-08-25T03:27:28.565Z,7.8
2018-08-25T03:28:30.164Z,7.8
2018-08-25T03:29:31.613Z,7.8
2018-08-25T03:30:33.255Z,7.8
2018-08-25T03:31:34.721Z,7.7
2018-08-25T03:32:36.354Z,7.6
2018-08-25T03:33:37.799Z,7.5
2018-08-25T03:34:39.254Z,7.4
2018-08-25T03:35:40.869Z,7.3
2018-08-25T03:36:42.462Z,7.2
2018-08-25T03:37:43.904Z,7.2
2018-08-25T03:38:45.372Z,7.2
2018-08-25T03:39:46.678Z,7.2
2018-08-25T03:40:48.136Z,7.2
2018-08-25T03:41:49.786Z,7.2
2018-08-25T03:42:51.254Z,7.2
2018-08-25T03:43:52.521Z,7.2
2018-08-25T03:44:53.984Z,7.2
2018-08-25T03:45:55.587Z,7.2
2018-08-25T03:46:57.194Z,7.2
2018-08-25T03:47:58.634Z,7.2
2018-08-25T03:49:00.231Z,7.2
2018-08-25T03:50:01.891Z,7.2
2018-08-25T03:51:03.375Z,7.2
2018-08-25T03:52:05.008Z,7.2
2018-08-25T03:53:06.627Z,7.2
2018-08-25T03:54:08.096Z,7.2
2018-08-25T03:55:09.689Z,7.2
2018-08-25T03:56:11.323Z,7.2
2018-08-25T03:57:12.434Z,7.2
2018-08-25T03:58:14.092Z,7.2
2018-08-25T03:59:15.693Z,7.2
2018-08-25T04:00:16.978Z,7.2
2018-08-25T04:01:18.448Z,7.2
2018-08-25T04:02:20.045Z,7.2
2018-08-25T04:03:21.664Z,7.2
2018-08-25T04:04:23.098Z,7.2
2018-08-25T04:05:24.703Z,7.2
2018-08-25T04:06:26.314Z,7.2
2018-08-25T04:07:27.943Z,7.2
2018-08-25T04:08:29.240Z,7.3
2018-08-25T04:09:30.872Z,7.3
2018-08-25T04:10:32.515Z,7.3
2018-08-25T04:11:34.111Z,7.3
2018-08-25T04:12:35.585Z,7.3
2018-08-25T04:13:37.184Z,7.3
2018-08-25T04:14:38.314Z,7.3
2018-08-25T04:15:39.618Z,7.3
2018-08-25T04:16:41.220Z,7.3
2018-08-25T04:17:42.852Z,7.3
2018-08-25T04:18:44.452Z,7.3
2018-08-25T04:19:46.048Z,7.4
2018-08-25T04:20:47.520Z,7.4
2018-08-25T04:21:49.134Z,7.4
2018-08-25T04:22:50.613Z,7.4
2018-08-25T04:23:52.234Z,7.4
2018-08-25T04:24:53.693Z,7.4
2018-08-25T04:25:55.132Z,7.5
2018-08-25T04:26:56.600Z,7.5
2018-08-25T04:27:57.875Z,7.5
2018-08-25T04:28:59.477Z,7.5
2018-08-25T04:30:00.961Z,7.6
2018-08-25T04:31:02.431Z,7.6
2018-08-25T04:32:04.063Z,7.6
2018-08-25T04:33:05.520Z,7.7
2018-08-25T04:34:07.150Z,7.7
2018-08-25T04:35:08.784Z,7.7
2018-08-25T04:36:10.445Z,7.8
2018-08-25T04:37:12.046Z,7.8
2018-08-25T04:38:13.675Z,7.8
2018-08-25T04:39:15.162Z,7.9
2018-08-25T04:40:16.604Z,7.9
2018-08-25T04:41:18.943Z,7.9
2018-08-25T04:42:20.662Z,7.9
2018-08-25T04:43:22.180Z,7.9
2018-08-25T04:44:23.634Z,7.9
2018-08-25T04:45:25.272Z,7.9
2018-08-25T04:46:26.902Z,7.9
2018-08-25T04:47:28.508Z,7.9
2018-08-25T04:48:29.788Z,7.9
2018-08-25T04:49:31.404Z,7.9
2018-08-25T04:50:33.003Z,7.9
2018-08-25T04:51:34.605Z,7.9
2018-08-25T04:52:36.299Z,7.9
2018-08-25T04:53:37.769Z,7.9
2018-08-25T04:54:39.609Z,7.9
2018-08-25T04:55:41.215Z,7.9
2018-08-25T04:56:42.687Z,7.9
2018-08-25T04:57:44.284Z,7.9
2018-08-25T04:58:45.896Z,7.9
2018-08-25T04:59:47.351Z,7.9
2018-08-25T05:00:48.979Z,7.9
2018-08-25T05:01:51.044Z,7.9
2018-08-25T05:02:52.743Z,7.8
2018-08-25T05:03:54.377Z,7.8
2018-08-25T05:04:56.016Z,7.8
2018-08-25T05:05:57.637Z,7.8
2018-08-25T05:06:59.273Z,7.8
2018-08-25T05:08:00.544Z,7.8
2018-08-25T05:09:02.013Z,7.8
2018-08-25T05:10:03.450Z,7.8
2018-08-25T05:11:05.053Z,7.8
2018-08-25T05:12:06.524Z,7.8
2018-08-25T05:13:07.976Z,7.8
2018-08-25T05:14:09.616Z,7.8
2018-08-25T05:15:10.947Z,7.8
2018-08-25T05:16:12.551Z,7.8
2018-08-25T05:17:13.995Z,7.8
2018-08-25T05:18:15.434Z,7.8
2018-08-25T05:19:16.876Z,7.8
2018-08-25T05:20:18.521Z,7.8
2018-08-25T05:21:20.156Z,7.8
2018-08-25T05:22:21.761Z,7.8
2018-08-25T05:23:23.384Z,7.8
2018-08-25T05:24:24.852Z,7.8
2018-08-25T05:25:26.288Z,7.8
2018-08-25T05:26:27.912Z,7.8
2018-08-25T05:27:29.375Z,7.8
2018-08-25T05:28:31.005Z,7.7
2018-08-25T05:29:32.619Z,7.6
2018-08-25T05:30:34.314Z,7.6
2018-08-25T05:31:35.954Z,7.5
2018-08-25T05:32:37.415Z,7.4
2018-08-25T05:33:39.044Z,7.3
2018-08-25T05:34:40.674Z,7.2
2018-08-25T05:35:42.139Z,7.2
2018-08-25T05:36:43.588Z,7.2
2018-08-25T05:37:45.200Z,7.2
2018-08-25T05:38:46.795Z,7.2
2018-08-25T05:39:48.387Z,7.2
2018-08-25T05:40:49.826Z,7.2
2018-08-25T05:41:51.133Z,7.2
2018-08-25T05:42:52.586Z,7.2
2018-08-25T05:43:53.700Z,7.2
2018-08-25T05:44:55.356Z,7.2
2018-08-25T05:45:56.499Z,7.2
2018-08-25T05:46:58.145Z,7.2
2018-08-25T05:47:59.650Z,7.2
2018-08-25T05:49:01.267Z,7.2
2018-08-25T05:50:02.710Z,7.2
2018-08-25T05:51:04.333Z,7.2
2018-08-25T05:52:05.950Z,7.2
2018-08-25T05:53:07.263Z,7.2
2018-08-25T05:54:08.872Z,7.2
2018-08-25T05:55:10.461Z,7.2
2018-08-25T05:56:11.750Z,7.3
2018-08-25T05:57:13.363Z,7.3
2018-08-25T05:58:14.843Z,7.4
2018-08-25T05:59:16.289Z,7.4
2018-08-25T06:00:17.914Z,7.4
2018-08-25T06:01:19.531Z,7.4
2018-08-25T06:02:20.996Z,7.3
2018-08-25T06:03:22.876Z,7.3
2018-08-25T06:04:24.493Z,7.3
2018-08-25T06:05:25.954Z,7.3
2018-08-25T06:06:27.764Z,7.3
2018-08-25T06:07:29.036Z,7.3
2018-08-25T06:08:30.645Z,7.3
2018-08-25T06:09:32.078Z,7.3
2018-08-25T06:10:33.527Z,7.3
2018-08-25T06:11:34.966Z,7.3
2018-08-25T06:12:36.415Z,7.3
2018-08-25T06:13:38.791Z,7.3
2018-08-25T06:14:40.441Z,7.3
2018-08-25T06:15:42.048Z,7.3
2018-08-25T06:16:43.652Z,7.3
2018-08-25T06:17:45.828Z,7.3
2018-08-25T06:18:47.494Z,7.3
2018-08-25T06:19:48.926Z,7.4
2018-08-25T06:20:50.570Z,7.4
2018-08-25T06:21:52.187Z,7.4
2018-08-25T06:22:53.803Z,7.4
2018-08-25T06:23:55.411Z,7.5
2018-08-25T06:24:56.540Z,7.5
2018-08-25T06:25:58.181Z,7.5
2018-08-25T06:26:59.821Z,7.6
2018-08-25T06:28:01.428Z,7.6
2018-08-25T06:29:02.886Z,7.7
2018-08-25T06:30:04.610Z,7.7
2018-08-25T06:31:06.099Z,7.8
2018-08-25T06:32:07.716Z,7.8
2018-08-25T06:33:09.317Z,7.8
2018-08-25T06:34:10.765Z,7.8
2018-08-25T06:35:12.062Z,7.9
2018-08-25T06:36:13.721Z,7.8
2018-08-25T06:37:15.167Z,7.9
2018-08-25T06:38:16.788Z,7.8
2018-08-25T06:39:18.403Z,7.9
2018-08-25T06:40:20.024Z,7.9
2018-08-25T06:41:21.473Z,7.9
2018-08-25T06:42:23.097Z,7.9
2018-08-25T06:43:24.986Z,7.9
2018-08-25T06:44:26.617Z,7.9
2018-08-25T06:45:27.918Z,7.9
2018-08-25T06:46:29.209Z,7.9
2018-08-25T06:47:30.731Z,7.9
2018-08-25T06:48:32.177Z,7.8
2018-08-25T06:49:33.787Z,7.9
2018-08-25T06:50:35.399Z,7.9
2018-08-25T06:51:37.020Z,7.9
2018-08-25T06:52:38.466Z,7.9
2018-08-25T06:53:40.111Z,7.9
2018-08-25T06:54:41.728Z,7.9
2018-08-25T06:55:43.388Z,7.9
2018-08-25T06:56:45.027Z,7.8
2018-08-25T06:57:46.469Z,7.8
2018-08-25T06:58:47.902Z,7.8
2018-08-25T06:59:49.518Z,7.8
2018-08-25T07:00:51.263Z,7.8
2018-08-25T07:01:52.717Z,7.8
2018-08-25T07:02:54.346Z,7.8
2018-08-25T07:03:55.628Z,7.8
2018-08-25T07:04:57.250Z,7.8
2018-08-25T07:05:59.294Z,7.8
2018-08-25T07:07:00.967Z,7.8
2018-08-25T07:08:02.249Z,7.8
2018-08-25T07:09:03.876Z,7.8
2018-08-25T07:10:05.508Z,7.8
2018-08-25T07:11:07.168Z,7.8
2018-08-25T07:12:08.803Z,7.8
2018-08-25T07:13:10.464Z,7.8
2018-08-25T07:14:12.080Z,7.8
2018-08-25T07:15:13.586Z,7.8
2018-08-25T07:16:15.196Z,7.7
2018-08-25T07:17:16.815Z,7.7
2018-08-25T07:18:18.439Z,7.6
2018-08-25T07:19:19.912Z,7.5
2018-08-25T07:20:21.372Z,7.5
2018-08-25T07:21:22.817Z,7.4
2018-08-25T07:22:24.428Z,7.2
2018-08-25T07:23:26.087Z,7.2
2018-08-25T07:24:27.561Z,7.2
2018-08-25T07:25:29.011Z,7.2
2018-08-25T07:26:30.618Z,7.2
2018-08-25T07:27:32.079Z,7.2
2018-08-25T07:28:33.703Z,7.2
2018-08-25T07:29:35.169Z,7.2
2018-08-25T07:30:36.799Z,7.2
2018-08-25T07:31:38.247Z,7.2
2018-08-25T07:32:39.708Z,7.2
2018-08-25T07:33:41.158Z,7.2
2018-08-25T07:34:42.781Z,7.2
2018-08-25T07:35:44.232Z,7.2
2018-08-25T07:36:45.845Z,7.2
2018-08-25T07:37:47.477Z,7.2
2018-08-25T07:38:49.097Z,7.2
2018-08-25T07:39:50.388Z,7.2
2018-08-25T07:40:52.012Z,7.2
2018-08-25T07:41:53.625Z,7.2
2018-08-25T07:42:55.396Z,7.2
2018-08-25T07:43:56.859Z,7.2
2018-08-25T07:44:58.316Z,7.2
2018-08-25T07:45:59.784Z,7.2
2018-08-25T07:47:01.101Z,7.2
2018-08-25T07:48:02.414Z,7.2
2018-08-25T07:49:03.875Z,7.2
2018-08-25T07:50:05.753Z,7.2
2018-08-25T07:51:07.373Z,7.2
2018-08-25T07:52:09.039Z,7.2
2018-08-25T07:53:10.669Z,7.3
2018-08-25T07:54:12.310Z,7.3
2018-08-25T07:55:13.958Z,7.3
2018-08-25T07:56:15.407Z,7.3
2018-08-25T07:57:17.011Z,7.4
2018-08-25T07:58:18.739Z,7.4
2018-08-25T07:59:20.688Z,7.4
2018-08-25T08:00:22.193Z,7.5
2018-08-25T08:01:23.812Z,7.5
2018-08-25T08:02:25.277Z,7.5
2018-08-25T08:03:26.913Z,7.5
2018-08-25T08:04:28.562Z,7.6
2018-08-25T08:05:30.360Z,7.6
2018-08-25T08:06:32.056Z,7.6
2018-08-25T08:07:33.509Z,7.7
2018-08-25T08:08:35.164Z,7.7
2018-08-25T08:09:36.770Z,7.8
2018-08-25T08:10:38.244Z,7.8
2018-08-25T08:11:40.013Z,7.8
2018-08-25T08:12:41.461Z,7.8
2018-08-25T08:13:42.924Z,7.9
2018-08-25T08:14:44.558Z,7.9
2018-08-25T08:15:46.230Z,7.8
2018-08-25T08:16:47.870Z,7.8
2018-08-25T08:17:49.473Z,7.9
2018-08-25T08:18:50.922Z,7.9
2018-08-25T08:19:52.198Z,7.9
2018-08-25T08:20:53.653Z,7.9
2018-08-25T08:21:55.293Z,7.9
2018-08-25T08:22:56.590Z,7.9
2018-08-25T08:23:58.213Z,7.9
2018-08-25T08:24:59.809Z,7.9
2018-08-25T08:26:01.268Z,7.9
2018-08-25T08:27:02.899Z,7.9
2018-08-25T08:28:04.514Z,7.9
2018-08-25T08:29:06.138Z,7.9
2018-08-25T08:30:07.581Z,7.9
2018-08-25T08:31:09.203Z,7.9
2018-08-25T08:32:10.486Z,7.9
2018-08-25T08:33:11.959Z,7.9
2018-08-25T08:34:13.636Z,7.8
2018-08-25T08:35:15.257Z,7.8
2018-08-25T08:36:16.371Z,7.9
2018-08-25T08:37:17.987Z,7.8
2018-08-25T08:38:19.453Z,7.9
2018-08-25T08:39:21.351Z,7.9
2018-08-25T08:40:23.005Z,7.8
2018-08-25T08:41:24.462Z,7.8
2018-08-25T08:42:26.957Z,7.8
2018-08-25T08:43:28.681Z,7.8
2018-08-25T08:44:30.139Z,7.8
2018-08-25T08:45:32.163Z,7.8
2018-08-25T08:46:33.656Z,7.8
2018-08-25T08:47:35.989Z,7.9
2018-08-25T08:48:37.721Z,7.9
2018-08-25T08:49:48.361Z,7.9
2018-08-25T08:50:49.824Z,7.9
2018-08-25T08:51:51.450Z,7.9
2018-08-25T08:52:52.910Z,7.8
2018-08-25T08:53:54.570Z,7.8
2018-08-25T08:54:56.201Z,7.8
2018-08-25T08:55:57.847Z,7.8
2018-08-25T08:56:59.439Z,7.8
2018-08-25T08:58:01.104Z,7.8
2018-08-25T08:59:02.729Z,7.8
2018-08-25T09:00:04.367Z,7.8
2018-08-25T09:01:05.826Z,7.8
2018-08-25T09:02:07.304Z,7.8
2018-08-25T09:03:08.932Z,7.8
2018-08-25T09:04:10.537Z,7.7
2018-08-25T09:05:11.825Z,7.7
2018-08-25T09:06:13.330Z,7.7
2018-08-25T09:07:14.942Z,7.6
2018-08-25T09:08:16.564Z,7.6
2018-08-25T09:09:18.008Z,7.5
2018-08-25T09:10:19.448Z,7.4
2018-08-25T09:11:21.142Z,7.3
2018-08-25T09:12:22.816Z,7.2
2018-08-25T09:13:24.453Z,7.2
2018-08-25T09:14:26.069Z,7.2
2018-08-25T09:15:27.527Z,7.2
2018-08-25T09:16:28.802Z,7.2
2018-08-25T09:17:30.252Z,7.2
2018-08-25T09:18:31.888Z,7.2
2018-08-25T09:19:34.409Z,7.2
2018-08-25T09:20:36.107Z,7.2
2018-08-25T09:21:37.392Z,7.2
2018-08-25T09:22:38.998Z,7.2
2018-08-25T09:23:40.600Z,7.2
2018-08-25T09:24:42.023Z,7.2
2018-08-25T09:25:43.643Z,7.2
2018-08-25T09:26:45.443Z,7.2
2018-08-25T09:27:47.059Z,7.2
2018-08-25T09:28:48.685Z,7.2
2018-08-25T09:29:50.293Z,7.2
2018-08-25T09:30:51.917Z,7.2
2018-08-25T09:31:53.532Z,7.2
2018-08-25T09:32:55.148Z,7.2
2018-08-25T09:33:56.587Z,7.2
2018-08-25T09:34:58.235Z,7.2
2018-08-25T09:36:01.657Z,7.2
2018-08-25T09:37:03.547Z,7.2
2018-08-25T09:38:04.895Z,7.2
2018-08-25T09:39:06.352Z,7.3
2018-08-25T09:40:07.977Z,7.3
2018-08-25T09:41:09.267Z,7.3
2018-08-25T09:42:10.491Z,7.3
2018-08-25T09:43:12.202Z,7.3
2018-08-25T09:44:13.910Z,7.3
2018-08-25T09:45:15.533Z,7.3
2018-08-25T09:46:17.179Z,7.3
2018-08-25T09:47:18.795Z,7.3
2018-08-25T09:48:20.249Z,7.3
2018-08-25T09:49:21.898Z,7.4
2018-08-25T09:50:23.204Z,7.4
2018-08-25T09:51:24.837Z,7.4
2018-08-25T09:52:26.529Z,7.5
2018-08-25T09:53:28.431Z,7.5
2018-08-25T09:54:29.737Z,7.5
2018-08-25T09:55:31.407Z,7.6
2018-08-25T09:56:33.046Z,7.6
2018-08-25T09:57:34.355Z,7.6
2018-08-25T09:58:35.656Z,7.6
2018-08-25T09:59:37.106Z,7.6
2018-08-25T10:00:38.575Z,7.6
2018-08-25T10:01:40.200Z,7.6
2018-08-25T10:02:41.831Z,7.7
2018-08-25T10:03:43.321Z,7.7
2018-08-25T10:04:44.802Z,7.7
2018-08-25T10:05:46.250Z,7.8
2018-08-25T10:06:47.897Z,7.8
2018-08-25T10:07:49.336Z,7.8
2018-08-25T10:08:50.985Z,7.8
2018-08-25T10:09:52.611Z,7.8
2018-08-25T10:10:54.665Z,7.8
2018-08-25T10:11:56.331Z,7.8
2018-08-25T10:12:57.963Z,7.8
2018-08-25T10:13:59.591Z,7.8
2018-08-25T10:15:01.068Z,7.8
2018-08-25T10:16:02.609Z,7.8
2018-08-25T10:17:04.267Z,7.8
2018-08-25T10:18:05.895Z,7.9
2018-08-25T10:19:07.579Z,7.8
2018-08-25T10:20:09.197Z,7.9
2018-08-25T10:21:10.816Z,7.8
2018-08-25T10:22:12.457Z,7.9
2018-08-25T10:23:14.136Z,7.8
2018-08-25T10:24:15.784Z,7.8
2018-08-25T10:25:17.238Z,7.8
2018-08-25T10:26:18.694Z,7.8
2018-08-25T10:27:20.381Z,7.9
2018-08-25T10:28:22.018Z,7.9
2018-08-25T10:29:23.479Z,7.9
2018-08-25T10:30:24.938Z,7.9
2018-08-25T10:31:26.402Z,7.9
2018-08-25T10:32:28.016Z,7.9
2018-08-25T10:33:29.686Z,7.9
2018-08-25T10:34:31.295Z,7.9
2018-08-25T10:35:33.157Z,7.9
2018-08-25T10:36:34.824Z,7.8
2018-08-25T10:37:36.501Z,7.8
2018-08-25T10:38:38.108Z,7.8
2018-08-25T10:39:39.755Z,7.8
2018-08-25T10:40:41.263Z,7.9
2018-08-25T10:41:43.438Z,7.9
2018-08-25T10:42:45.005Z,7.9
2018-08-25T10:43:46.676Z,7.9
2018-08-25T10:44:48.292Z,7.9
2018-08-25T10:45:49.758Z,7.9
2018-08-25T10:46:51.382Z,7.9
2018-08-25T10:47:52.987Z,7.8
2018-08-25T10:48:54.452Z,7.9
2018-08-25T10:49:55.907Z,7.9
2018-08-25T10:50:57.394Z,7.9
2018-08-25T10:51:58.666Z,7.9
2018-08-25T10:53:00.071Z,7.9
2018-08-25T10:54:02.624Z,7.8
2018-08-25T10:55:04.366Z,7.8
2018-08-25T10:56:05.821Z,7.8
2018-08-25T10:57:07.477Z,7.8
2018-08-25T10:58:09.025Z,7.8
2018-08-25T10:59:10.648Z,7.8
2018-08-25T11:00:12.700Z,7.8
2018-08-25T11:01:14.778Z,7.7
2018-08-25T11:02:16.256Z,7.7
2018-08-25T11:03:17.873Z,7.6
2018-08-25T11:04:19.166Z,7.6
2018-08-25T11:05:20.779Z,7.5
2018-08-25T11:06:22.084Z,7.4
2018-08-25T11:07:23.476Z,7.3
2018-08-25T11:08:24.712Z,7.2
2018-08-25T11:09:26.181Z,7.2
2018-08-25T11:10:27.808Z,7.2
2018-08-25T11:11:29.257Z,7.2
2018-08-25T11:12:30.869Z,7.2
2018-08-25T11:13:32.326Z,7.2
2018-08-25T11:14:33.956Z,7.2
2018-08-25T11:15:35.575Z,7.2
2018-08-25T11:16:37.378Z,7.2
2018-08-25T11:17:39.085Z,7.2
2018-08-25T11:18:40.682Z,7.2
2018-08-25T11:19:42.295Z,7.2
2018-08-25T11:20:43.928Z,7.2
2018-08-25T11:21:45.376Z,7.2
2018-08-25T11:22:46.985Z,7.2
2018-08-25T11:23:49.381Z,7.2
2018-08-25T11:24:51.113Z,7.2
2018-08-25T11:25:52.761Z,7.2
2018-08-25T11:26:54.391Z,7.2
2018-08-25T11:27:55.861Z,7.2
2018-08-25T11:28:57.377Z,7.2
2018-08-25T11:29:59.010Z,7.2
2018-08-25T11:31:00.653Z,7.2
2018-08-25T11:32:02.274Z,7.2
2018-08-25T11:33:03.708Z,7.2
2018-08-25T11:34:05.334Z,7.2
2018-08-25T11:35:07.154Z,7.2
2018-08-25T11:36:08.448Z,7.2
2018-08-25T11:37:10.419Z,7.2
2018-08-25T11:38:12.591Z,7.2
2018-08-25T11:39:14.357Z,7.2
2018-08-25T11:40:15.813Z,7.2
2018-08-25T11:41:17.450Z,7.3
2018-08-25T11:42:19.057Z,7.3
2018-08-25T11:43:20.688Z,7.3
2018-08-25T11:44:22.359Z,7.3
2018-08-25T11:45:23.819Z,7.3
2018-08-25T11:46:25.434Z,7.3
2018-08-25T11:47:26.745Z,7.3
2018-08-25T11:48:28.184Z,7.3
2018-08-25T11:49:29.479Z,7.3
2018-08-25T11:50:30.763Z,7.4
2018-08-25T11:51:32.201Z,7.4
2018-08-25T11:52:33.826Z,7.4
2018-08-25T11:53:35.291Z,7.5
2018-08-25T11:54:36.771Z,7.5
2018-08-25T11:55:38.218Z,7.5
2018-08-25T11:56:39.692Z,7.6
2018-08-25T11:57:41.138Z,7.7
2018-08-25T11:58:42.763Z,7.7
2018-08-25T11:59:44.198Z,7.8
2018-08-25T12:00:45.798Z,7.8
2018-08-25T12:01:47.413Z,7.8
2018-08-25T12:02:49.045Z,7.8
2018-08-25T12:03:50.687Z,7.8
2018-08-25T12:04:52.302Z,7.9
2018-08-25T12:05:53.775Z,7.9
2018-08-25T12:06:55.288Z,7.9
2018-08-25T12:07:56.920Z,7.8
2018-08-25T12:08:58.390Z,7.8
2018-08-25T12:10:00.032Z,7.8
2018-08-25T12:11:01.528Z,7.9
2018-08-25T12:12:03.159Z,7.9
2018-08-25T12:13:04.784Z,7.9
2018-08-25T12:14:06.424Z,7.8
2018-08-25T12:15:08.059Z,7.9
2018-08-25T12:16:09.706Z,7.9
2018-08-25T12:17:11.377Z,7.9
2018-08-25T12:18:12.979Z,7.9
2018-08-25T12:19:14.436Z,7.9
2018-08-25T12:20:15.932Z,7.9
2018-08-25T12:21:17.556Z,7.9
2018-08-25T12:22:19.011Z,7.9
2018-08-25T12:23:20.667Z,7.9
2018-08-25T12:24:22.120Z,7.9
2018-08-25T12:25:23.741Z,7.9
2018-08-25T12:26:25.305Z,7.9
2018-08-25T12:27:26.980Z,7.9
2018-08-25T12:28:28.259Z,7.9
2018-08-25T12:29:29.705Z,7.9
2018-08-25T12:30:31.595Z,7.9
2018-08-25T12:31:33.299Z,7.9
2018-08-25T12:32:34.767Z,7.9
2018-08-25T12:33:37.018Z,7.9
2018-08-25T12:34:38.825Z,7.9
2018-08-25T12:35:40.469Z,7.9
2018-08-25T12:36:41.929Z,7.9
2018-08-25T12:37:43.556Z,7.9
2018-08-25T12:38:45.057Z,7.9
2018-08-25T12:39:46.716Z,7.9
2018-08-25T12:40:48.359Z,7.9
2018-08-25T12:41:49.806Z,7.9
2018-08-25T12:42:51.425Z,7.9
2018-08-25T12:43:53.065Z,7.9
2018-08-25T12:44:55.007Z,7.9
2018-08-25T12:45:56.648Z,7.9
2018-08-25T12:46:58.196Z,7.9
2018-08-25T12:47:59.839Z,7.9
2018-08-25T12:49:01.474Z,7.9
2018-08-25T12:50:02.936Z,7.9
2018-08-25T12:51:04.801Z,7.9
2018-08-25T12:52:06.464Z,7.9
2018-08-25T12:53:08.094Z,7.9
2018-08-25T12:54:09.722Z,7.9
2018-08-25T12:55:11.507Z,7.9
2018-08-25T12:56:13.142Z,7.9
2018-08-25T12:57:14.762Z,7.9
2018-08-25T12:58:16.433Z,7.8
2018-08-25T12:59:18.589Z,7.8
2018-08-25T13:00:20.264Z,7.8
2018-08-25T13:01:21.880Z,7.8
2018-08-25T13:02:23.578Z,7.8
2018-08-25T13:03:25.447Z,7.7
2018-08-25T13:04:26.897Z,7.7
2018-08-25T13:05:28.350Z,7.6
2018-08-25T13:06:29.990Z,7.6
2018-08-25T13:07:32.384Z,7.5
2018-08-25T13:08:34.052Z,7.4
2018-08-25T13:09:35.545Z,7.3
2018-08-25T13:10:36.987Z,7.2
2018-08-25T13:11:38.619Z,7.2
2018-08-25T13:12:40.284Z,7.2
2018-08-25T13:13:41.907Z,7.2
2018-08-25T13:14:43.524Z,7.2
2018-08-25T13:15:44.774Z,7.2
2018-08-25T13:16:46.420Z,7.2
2018-08-25T13:17:48.061Z,7.2
2018-08-25T13:18:50.094Z,7.2
2018-08-25T13:19:51.745Z,7.2
2018-08-25T13:20:53.414Z,7.2
2018-08-25T13:21:55.444Z,7.2
2018-08-25T13:22:57.116Z,7.2
2018-08-25T13:23:58.600Z,7.2
2018-08-25T13:25:00.899Z,7.2
2018-08-25T13:26:02.394Z,7.2
2018-08-25T13:27:04.009Z,7.2
2018-08-25T13:28:05.621Z,7.2
2018-08-25T13:29:07.258Z,7.2
2018-08-25T13:30:08.912Z,7.2
2018-08-25T13:31:11.207Z,7.2
2018-08-25T13:32:12.898Z,7.2
2018-08-25T13:33:14.512Z,7.2
2018-08-25T13:34:16.123Z,7.2
2018-08-25T13:35:17.746Z,7.2
2018-08-25T13:36:19.219Z,7.2
2018-08-25T13:37:20.852Z,7.2
2018-08-25T13:38:22.308Z,7.2
2018-08-25T13:39:23.912Z,7.3
2018-08-25T13:40:25.561Z,7.3
2018-08-25T13:41:26.985Z,7.3
2018-08-25T13:42:28.587Z,7.3
2018-08-25T13:43:29.863Z,7.3
2018-08-25T13:44:31.357Z,7.4
2018-08-25T13:45:33.589Z,7.4
2018-08-25T13:46:35.436Z,7.5
2018-08-25T13:47:37.069Z,7.6
2018-08-25T13:48:38.593Z,7.7
2018-08-25T13:49:40.224Z,7.8
2018-08-25T13:50:41.853Z,7.8
2018-08-25T13:51:43.156Z,7.8
2018-08-25T13:52:45.184Z,7.9
2018-08-25T13:53:46.472Z,7.9
2018-08-25T13:54:47.593Z,7.9
2018-08-25T13:55:49.197Z,7.8
2018-08-25T13:56:50.847Z,7.8
2018-08-25T13:57:52.310Z,7.8
2018-08-25T13:58:53.987Z,7.8
2018-08-25T13:59:55.457Z,7.8
2018-08-25T14:00:56.899Z,7.8
2018-08-25T14:01:58.337Z,7.8
2018-08-25T14:02:59.979Z,7.8
2018-08-25T14:04:01.619Z,7.8
2018-08-25T14:05:03.077Z,7.8
2018-08-25T14:06:04.718Z,7.8
2018-08-25T14:07:06.349Z,7.8
2018-08-25T14:08:08.800Z,7.8